sensor_id;sensor_type;location;lat;lon;timestamp;P1;durP1;ratioP1;P2;durP2;ratioP2
33690;SDS011;20026;50.058;18.428;2023-03-23T00:01:54;52.00;;;27.63;;
33690;SDS011;20026;50.058;18.428;2023-03-23T00:04:20;50.97;;;27.23;;
33690;SDS011;20026;50.058;18.428;2023-03-23T00:06:47;44.33;;;23.88;;
33690;SDS011;20026;50.058;18.428;2023-03-23T00:09:14;43.75;;;24.83;;
33690;SDS011;20026;50.058;18.428;2023-03-23T00:11:43;86.47;;;55.15;;
33690;SDS011;20026;50.058;18.428;2023-03-23T00:14:09;98.20;;;58.28;;
33690;SDS011;20026;50.058;18.428;2023-03-23T00:16:39;58.55;;;33.20;;
33690;SDS011;20026;50.058;18.428;2023-03-23T00:19:12;72.75;;;37.72;;
33690;SDS011;20026;50.058;18.428;2023-03-23T00:21:39;66.72;;;34.25;;
33690;SDS011;20026;50.058;18.428;2023-03-23T00:26:33;30.30;;;18.33;;
33690;SDS011;20026;50.058;18.428;2023-03-23T00:29:01;30.25;;;16.70;;
33690;SDS011;20026;50.058;18.428;2023-03-23T00:31:27;31.75;;;16.95;;
33690;SDS011;20026;50.058;18.428;2023-03-23T00:33:56;39.58;;;19.40;;
33690;SDS011;20026;50.058;18.428;2023-03-23T00:36:23;34.88;;;17.70;;
33690;SDS011;20026;50.058;18.428;2023-03-23T00:38:51;31.83;;;16.33;;
33690;SDS011;20026;50.058;18.428;2023-03-23T00:41:17;28.83;;;15.00;;
33690;SDS011;20026;50.058;18.428;2023-03-23T00:43:43;27.27;;;15.23;;
33690;SDS011;20026;50.058;18.428;2023-03-23T00:46:09;20.15;;;12.18;;
33690;SDS011;20026;50.058;18.428;2023-03-23T00:48:36;19.42;;;11.85;;
33690;SDS011;20026;50.058;18.428;2023-03-23T00:51:09;17.38;;;10.52;;
33690;SDS011;20026;50.058;18.428;2023-03-23T00:53:35;20.13;;;11.48;;
33690;SDS011;20026;50.058;18.428;2023-03-23T00:56:01;17.63;;;10.45;;
33690;SDS011;20026;50.058;18.428;2023-03-23T00:58:27;14.60;;;9.43;;
33690;SDS011;20026;50.058;18.428;2023-03-23T01:00:54;15.00;;;9.18;;
33690;SDS011;20026;50.058;18.428;2023-03-23T01:03:21;14.30;;;9.68;;
33690;SDS011;20026;50.058;18.428;2023-03-23T01:05:50;12.68;;;8.57;;
33690;SDS011;20026;50.058;18.428;2023-03-23T01:08:17;15.07;;;9.68;;
33690;SDS011;20026;50.058;18.428;2023-03-23T01:10:44;14.57;;;9.05;;
33690;SDS011;20026;50.058;18.428;2023-03-23T01:13:10;14.35;;;9.20;;
33690;SDS011;20026;50.058;18.428;2023-03-23T01:15:36;14.02;;;8.75;;
33690;SDS011;20026;50.058;18.428;2023-03-23T01:18:02;14.82;;;8.55;;
33690;SDS011;20026;50.058;18.428;2023-03-23T01:20:28;12.27;;;8.00;;
33690;SDS011;20026;50.058;18.428;2023-03-23T01:22:56;10.93;;;8.00;;
33690;SDS011;20026;50.058;18.428;2023-03-23T01:25:26;11.13;;;8.38;;
33690;SDS011;20026;50.058;18.428;2023-03-23T01:27:53;10.50;;;7.60;;
33690;SDS011;20026;50.058;18.428;2023-03-23T01:30:19;12.82;;;8.05;;
33690;SDS011;20026;50.058;18.428;2023-03-23T01:32:45;14.65;;;8.07;;
33690;SDS011;20026;50.058;18.428;2023-03-23T01:35:14;13.65;;;7.70;;
33690;SDS011;20026;50.058;18.428;2023-03-23T01:37:40;9.33;;;7.33;;
33690;SDS011;20026;50.058;18.428;2023-03-23T01:40:06;10.13;;;7.20;;
33690;SDS011;20026;50.058;18.428;2023-03-23T01:42:35;8.50;;;6.97;;
33690;SDS011;20026;50.058;18.428;2023-03-23T01:47:49;10.48;;;7.30;;
33690;SDS011;20026;50.058;18.428;2023-03-23T01:50:17;11.38;;;8.00;;
33690;SDS011;20026;50.058;18.428;2023-03-23T01:52:43;13.50;;;7.90;;
33690;SDS011;20026;50.058;18.428;2023-03-23T01:55:09;11.82;;;7.35;;
33690;SDS011;20026;50.058;18.428;2023-03-23T01:57:35;9.30;;;6.90;;
33690;SDS011;20026;50.058;18.428;2023-03-23T02:00:04;10.23;;;7.25;;
33690;SDS011;20026;50.058;18.428;2023-03-23T02:02:39;9.65;;;6.88;;
33690;SDS011;20026;50.058;18.428;2023-03-23T02:05:08;10.48;;;7.13;;
33690;SDS011;20026;50.058;18.428;2023-03-23T02:10:02;11.57;;;7.00;;
33690;SDS011;20026;50.058;18.428;2023-03-23T02:12:28;9.82;;;7.05;;
33690;SDS011;20026;50.058;18.428;2023-03-23T02:14:54;8.93;;;6.60;;
33690;SDS011;20026;50.058;18.428;2023-03-23T02:17:29;10.32;;;6.80;;
33690;SDS011;20026;50.058;18.428;2023-03-23T02:30:21;11.50;;;7.85;;
33690;SDS011;20026;50.058;18.428;2023-03-23T02:35:34;15.38;;;9.10;;
33690;SDS011;20026;50.058;18.428;2023-03-23T02:38:04;13.35;;;8.95;;
33690;SDS011;20026;50.058;18.428;2023-03-23T02:40:33;12.27;;;8.95;;
33690;SDS011;20026;50.058;18.428;2023-03-23T02:43:01;14.63;;;9.38;;
33690;SDS011;20026;50.058;18.428;2023-03-23T02:45:28;14.77;;;9.98;;
33690;SDS011;20026;50.058;18.428;2023-03-23T02:47:56;15.02;;;11.05;;
33690;SDS011;20026;50.058;18.428;2023-03-23T02:50:23;13.73;;;10.20;;
33690;SDS011;20026;50.058;18.428;2023-03-23T02:52:49;18.02;;;12.10;;
33690;SDS011;20026;50.058;18.428;2023-03-23T02:55:16;16.88;;;11.75;;
33690;SDS011;20026;50.058;18.428;2023-03-23T02:57:43;20.30;;;11.75;;
33690;SDS011;20026;50.058;18.428;2023-03-23T03:00:11;17.67;;;11.07;;
33690;SDS011;20026;50.058;18.428;2023-03-23T03:02:38;16.77;;;11.30;;
33690;SDS011;20026;50.058;18.428;2023-03-23T03:07:36;13.65;;;9.55;;
33690;SDS011;20026;50.058;18.428;2023-03-23T03:10:25;12.57;;;9.80;;
33690;SDS011;20026;50.058;18.428;2023-03-23T03:15:23;15.93;;;11.25;;
33690;SDS011;20026;50.058;18.428;2023-03-23T03:18:14;18.92;;;11.52;;
33690;SDS011;20026;50.058;18.428;2023-03-23T03:20:39;16.08;;;11.23;;
33690;SDS011;20026;50.058;18.428;2023-03-23T03:23:06;18.35;;;10.82;;
33690;SDS011;20026;50.058;18.428;2023-03-23T03:25:34;17.05;;;10.85;;
33690;SDS011;20026;50.058;18.428;2023-03-23T03:28:00;15.48;;;11.13;;
33690;SDS011;20026;50.058;18.428;2023-03-23T03:30:29;17.55;;;11.55;;
33690;SDS011;20026;50.058;18.428;2023-03-23T03:32:56;16.90;;;11.27;;
33690;SDS011;20026;50.058;18.428;2023-03-23T03:35:25;19.13;;;11.70;;
33690;SDS011;20026;50.058;18.428;2023-03-23T03:37:51;16.95;;;10.90;;
33690;SDS011;20026;50.058;18.428;2023-03-23T03:40:18;17.55;;;11.55;;
33690;SDS011;20026;50.058;18.428;2023-03-23T03:42:45;17.52;;;11.60;;
33690;SDS011;20026;50.058;18.428;2023-03-23T03:45:12;16.45;;;11.02;;
33690;SDS011;20026;50.058;18.428;2023-03-23T03:47:39;18.35;;;10.82;;
33690;SDS011;20026;50.058;18.428;2023-03-23T03:50:05;13.55;;;10.15;;
33690;SDS011;20026;50.058;18.428;2023-03-23T03:52:31;16.30;;;10.57;;
33690;SDS011;20026;50.058;18.428;2023-03-23T03:54:58;15.75;;;10.85;;
33690;SDS011;20026;50.058;18.428;2023-03-23T03:57:23;19.15;;;11.98;;
33690;SDS011;20026;50.058;18.428;2023-03-23T03:59:50;15.57;;;10.55;;
33690;SDS011;20026;50.058;18.428;2023-03-23T04:02:16;18.90;;;10.70;;
33690;SDS011;20026;50.058;18.428;2023-03-23T04:04:45;18.02;;;11.77;;
33690;SDS011;20026;50.058;18.428;2023-03-23T04:07:11;17.02;;;11.73;;
33690;SDS011;20026;50.058;18.428;2023-03-23T04:09:39;15.77;;;11.15;;
33690;SDS011;20026;50.058;18.428;2023-03-23T04:12:05;14.63;;;10.55;;
33690;SDS011;20026;50.058;18.428;2023-03-23T04:14:31;16.50;;;11.02;;
33690;SDS011;20026;50.058;18.428;2023-03-23T04:16:57;17.88;;;10.63;;
33690;SDS011;20026;50.058;18.428;2023-03-23T04:19:24;15.90;;;10.75;;
33690;SDS011;20026;50.058;18.428;2023-03-23T04:21:50;19.63;;;11.48;;
33690;SDS011;20026;50.058;18.428;2023-03-23T04:24:16;17.80;;;11.43;;
33690;SDS011;20026;50.058;18.428;2023-03-23T04:29:11;17.13;;;10.75;;
33690;SDS011;20026;50.058;18.428;2023-03-23T04:31:38;19.63;;;11.00;;
33690;SDS011;20026;50.058;18.428;2023-03-23T04:34:05;12.75;;;9.65;;
33690;SDS011;20026;50.058;18.428;2023-03-23T04:36:31;16.17;;;9.65;;
33690;SDS011;20026;50.058;18.428;2023-03-23T04:38:59;15.40;;;8.98;;
33690;SDS011;20026;50.058;18.428;2023-03-23T04:41:25;16.33;;;8.65;;
33690;SDS011;20026;50.058;18.428;2023-03-23T04:43:52;17.92;;;9.43;;
33690;SDS011;20026;50.058;18.428;2023-03-23T04:46:21;17.13;;;9.70;;
33690;SDS011;20026;50.058;18.428;2023-03-23T04:48:47;14.88;;;8.77;;
33690;SDS011;20026;50.058;18.428;2023-03-23T04:51:13;12.88;;;8.60;;
33690;SDS011;20026;50.058;18.428;2023-03-23T04:53:39;12.90;;;8.68;;
33690;SDS011;20026;50.058;18.428;2023-03-23T04:56:06;14.15;;;9.80;;
33690;SDS011;20026;50.058;18.428;2023-03-23T04:58:32;15.50;;;10.18;;
33690;SDS011;20026;50.058;18.428;2023-03-23T05:01:01;14.82;;;9.23;;
33690;SDS011;20026;50.058;18.428;2023-03-23T05:03:29;17.40;;;10.38;;
33690;SDS011;20026;50.058;18.428;2023-03-23T05:05:55;21.30;;;13.02;;
33690;SDS011;20026;50.058;18.428;2023-03-23T05:08:24;16.00;;;9.93;;
33690;SDS011;20026;50.058;18.428;2023-03-23T05:10:51;14.27;;;9.82;;
33690;SDS011;20026;50.058;18.428;2023-03-23T05:13:17;17.92;;;10.20;;
33690;SDS011;20026;50.058;18.428;2023-03-23T05:15:43;14.95;;;9.13;;
33690;SDS011;20026;50.058;18.428;2023-03-23T05:18:10;15.60;;;9.13;;
33690;SDS011;20026;50.058;18.428;2023-03-23T05:20:36;14.88;;;8.93;;
33690;SDS011;20026;50.058;18.428;2023-03-23T05:23:02;14.43;;;10.23;;
33690;SDS011;20026;50.058;18.428;2023-03-23T05:25:29;14.45;;;9.00;;
33690;SDS011;20026;50.058;18.428;2023-03-23T05:27:55;12.90;;;9.43;;
33690;SDS011;20026;50.058;18.428;2023-03-23T05:30:21;11.20;;;8.48;;
33690;SDS011;20026;50.058;18.428;2023-03-23T05:32:47;14.25;;;9.32;;
33690;SDS011;20026;50.058;18.428;2023-03-23T05:35:17;13.25;;;9.18;;
33690;SDS011;20026;50.058;18.428;2023-03-23T05:37:44;16.85;;;8.93;;
33690;SDS011;20026;50.058;18.428;2023-03-23T05:40:12;16.23;;;8.18;;
33690;SDS011;20026;50.058;18.428;2023-03-23T05:42:39;10.85;;;8.45;;
33690;SDS011;20026;50.058;18.428;2023-03-23T05:45:10;14.63;;;9.65;;
33690;SDS011;20026;50.058;18.428;2023-03-23T05:47:37;13.63;;;9.13;;
33690;SDS011;20026;50.058;18.428;2023-03-23T05:50:04;13.20;;;9.05;;
33690;SDS011;20026;50.058;18.428;2023-03-23T05:52:31;21.48;;;10.93;;
33690;SDS011;20026;50.058;18.428;2023-03-23T05:54:58;24.10;;;13.65;;
33690;SDS011;20026;50.058;18.428;2023-03-23T05:57:24;22.70;;;13.57;;
33690;SDS011;20026;50.058;18.428;2023-03-23T05:59:50;20.48;;;11.10;;
33690;SDS011;20026;50.058;18.428;2023-03-23T06:02:17;25.38;;;13.32;;
33690;SDS011;20026;50.058;18.428;2023-03-23T06:04:43;19.75;;;11.38;;
33690;SDS011;20026;50.058;18.428;2023-03-23T06:07:09;18.77;;;11.30;;
33690;SDS011;20026;50.058;18.428;2023-03-23T06:09:38;19.52;;;12.13;;
33690;SDS011;20026;50.058;18.428;2023-03-23T06:12:05;22.63;;;14.93;;
33690;SDS011;20026;50.058;18.428;2023-03-23T06:14:31;16.80;;;11.52;;
33690;SDS011;20026;50.058;18.428;2023-03-23T06:16:58;21.85;;;12.63;;
33690;SDS011;20026;50.058;18.428;2023-03-23T06:19:24;17.13;;;11.40;;
33690;SDS011;20026;50.058;18.428;2023-03-23T06:21:51;21.50;;;12.13;;
33690;SDS011;20026;50.058;18.428;2023-03-23T06:24:18;16.90;;;11.25;;
33690;SDS011;20026;50.058;18.428;2023-03-23T06:26:44;16.70;;;10.55;;
33690;SDS011;20026;50.058;18.428;2023-03-23T06:29:10;19.15;;;11.73;;
33690;SDS011;20026;50.058;18.428;2023-03-23T06:31:49;16.77;;;10.85;;
33690;SDS011;20026;50.058;18.428;2023-03-23T06:34:17;16.55;;;10.57;;
33690;SDS011;20026;50.058;18.428;2023-03-23T06:36:43;20.50;;;11.23;;
33690;SDS011;20026;50.058;18.428;2023-03-23T06:39:09;17.23;;;10.68;;
33690;SDS011;20026;50.058;18.428;2023-03-23T06:41:36;23.38;;;11.60;;
33690;SDS011;20026;50.058;18.428;2023-03-23T06:44:02;24.38;;;13.93;;
33690;SDS011;20026;50.058;18.428;2023-03-23T06:46:28;33.90;;;16.00;;
33690;SDS011;20026;50.058;18.428;2023-03-23T06:48:54;25.67;;;12.82;;
33690;SDS011;20026;50.058;18.428;2023-03-23T06:51:22;29.27;;;14.85;;
33690;SDS011;20026;50.058;18.428;2023-03-23T06:53:48;27.60;;;13.32;;
33690;SDS011;20026;50.058;18.428;2023-03-23T06:56:14;20.77;;;12.43;;
33690;SDS011;20026;50.058;18.428;2023-03-23T06:58:40;19.33;;;10.15;;
33690;SDS011;20026;50.058;18.428;2023-03-23T07:01:10;18.10;;;10.20;;
33690;SDS011;20026;50.058;18.428;2023-03-23T07:03:37;18.08;;;10.00;;
33690;SDS011;20026;50.058;18.428;2023-03-23T07:06:06;15.48;;;9.38;;
33690;SDS011;20026;50.058;18.428;2023-03-23T07:08:32;21.55;;;9.80;;
33690;SDS011;20026;50.058;18.428;2023-03-23T07:10:58;20.25;;;8.63;;
33690;SDS011;20026;50.058;18.428;2023-03-23T07:13:24;17.70;;;8.90;;
33690;SDS011;20026;50.058;18.428;2023-03-23T07:15:50;17.15;;;8.55;;
33690;SDS011;20026;50.058;18.428;2023-03-23T07:18:16;15.25;;;7.90;;
33690;SDS011;20026;50.058;18.428;2023-03-23T07:20:42;12.88;;;7.13;;
33690;SDS011;20026;50.058;18.428;2023-03-23T07:23:09;14.90;;;7.20;;
33690;SDS011;20026;50.058;18.428;2023-03-23T07:25:35;11.93;;;6.90;;
33690;SDS011;20026;50.058;18.428;2023-03-23T07:28:01;10.48;;;7.63;;
33690;SDS011;20026;50.058;18.428;2023-03-23T07:30:28;16.45;;;7.90;;
33690;SDS011;20026;50.058;18.428;2023-03-23T07:32:55;16.50;;;7.32;;
33690;SDS011;20026;50.058;18.428;2023-03-23T07:35:22;9.95;;;6.85;;
33690;SDS011;20026;50.058;18.428;2023-03-23T07:37:48;10.88;;;7.60;;
33690;SDS011;20026;50.058;18.428;2023-03-23T07:40:14;15.40;;;8.57;;
33690;SDS011;20026;50.058;18.428;2023-03-23T07:42:45;13.73;;;7.15;;
33690;SDS011;20026;50.058;18.428;2023-03-23T07:45:14;17.65;;;8.88;;
33690;SDS011;20026;50.058;18.428;2023-03-23T07:47:40;14.38;;;8.05;;
33690;SDS011;20026;50.058;18.428;2023-03-23T07:50:07;13.85;;;7.47;;
33690;SDS011;20026;50.058;18.428;2023-03-23T07:52:33;12.55;;;6.80;;
33690;SDS011;20026;50.058;18.428;2023-03-23T07:55:00;15.95;;;7.55;;
33690;SDS011;20026;50.058;18.428;2023-03-23T07:57:29;15.65;;;7.57;;
33690;SDS011;20026;50.058;18.428;2023-03-23T07:59:55;11.82;;;6.28;;
33690;SDS011;20026;50.058;18.428;2023-03-23T08:02:23;11.75;;;6.28;;
33690;SDS011;20026;50.058;18.428;2023-03-23T08:04:49;8.68;;;5.30;;
33690;SDS011;20026;50.058;18.428;2023-03-23T08:07:16;8.70;;;4.88;;
33690;SDS011;20026;50.058;18.428;2023-03-23T08:09:44;12.85;;;5.60;;
33690;SDS011;20026;50.058;18.428;2023-03-23T08:12:11;9.32;;;5.00;;
33690;SDS011;20026;50.058;18.428;2023-03-23T08:14:37;6.55;;;4.72;;
33690;SDS011;20026;50.058;18.428;2023-03-23T08:17:05;6.78;;;4.15;;
33690;SDS011;20026;50.058;18.428;2023-03-23T08:19:31;7.30;;;4.35;;
33690;SDS011;20026;50.058;18.428;2023-03-23T08:22:01;9.32;;;4.85;;
33690;SDS011;20026;50.058;18.428;2023-03-23T08:24:27;9.60;;;5.15;;
33690;SDS011;20026;50.058;18.428;2023-03-23T08:26:53;6.45;;;4.68;;
33690;SDS011;20026;50.058;18.428;2023-03-23T08:29:19;7.57;;;4.57;;
33690;SDS011;20026;50.058;18.428;2023-03-23T08:31:45;9.68;;;4.80;;
33690;SDS011;20026;50.058;18.428;2023-03-23T08:34:12;9.45;;;5.13;;
33690;SDS011;20026;50.058;18.428;2023-03-23T08:36:38;9.77;;;4.90;;
33690;SDS011;20026;50.058;18.428;2023-03-23T08:39:04;7.32;;;4.75;;
33690;SDS011;20026;50.058;18.428;2023-03-23T08:41:31;9.77;;;4.28;;
33690;SDS011;20026;50.058;18.428;2023-03-23T08:43:57;6.38;;;4.05;;
33690;SDS011;20026;50.058;18.428;2023-03-23T08:46:23;13.32;;;4.70;;
33690;SDS011;20026;50.058;18.428;2023-03-23T08:48:49;9.52;;;4.80;;
33690;SDS011;20026;50.058;18.428;2023-03-23T08:51:15;6.50;;;3.97;;
33690;SDS011;20026;50.058;18.428;2023-03-23T08:53:41;6.47;;;4.00;;
33690;SDS011;20026;50.058;18.428;2023-03-23T08:56:09;7.88;;;4.25;;
33690;SDS011;20026;50.058;18.428;2023-03-23T08:58:35;9.45;;;4.15;;
33690;SDS011;20026;50.058;18.428;2023-03-23T09:01:02;14.68;;;4.65;;
33690;SDS011;20026;50.058;18.428;2023-03-23T09:03:30;7.68;;;4.38;;
33690;SDS011;20026;50.058;18.428;2023-03-23T09:06:00;13.35;;;4.80;;
33690;SDS011;20026;50.058;18.428;2023-03-23T09:08:27;11.13;;;4.68;;
33690;SDS011;20026;50.058;18.428;2023-03-23T09:10:59;10.15;;;4.00;;
33690;SDS011;20026;50.058;18.428;2023-03-23T09:13:26;10.43;;;4.78;;
33690;SDS011;20026;50.058;18.428;2023-03-23T09:15:52;10.57;;;4.65;;
33690;SDS011;20026;50.058;18.428;2023-03-23T09:18:18;7.20;;;4.38;;
33690;SDS011;20026;50.058;18.428;2023-03-23T09:20:44;9.82;;;4.20;;
33690;SDS011;20026;50.058;18.428;2023-03-23T09:23:10;8.20;;;4.50;;
33690;SDS011;20026;50.058;18.428;2023-03-23T09:25:38;10.85;;;4.65;;
33690;SDS011;20026;50.058;18.428;2023-03-23T09:28:04;7.00;;;4.18;;
33690;SDS011;20026;50.058;18.428;2023-03-23T09:30:31;24.52;;;10.70;;
33690;SDS011;20026;50.058;18.428;2023-03-23T09:32:59;6.95;;;4.93;;
33690;SDS011;20026;50.058;18.428;2023-03-23T09:35:28;11.45;;;6.05;;
33690;SDS011;20026;50.058;18.428;2023-03-23T09:37:56;12.50;;;6.72;;
33690;SDS011;20026;50.058;18.428;2023-03-23T09:40:30;9.05;;;4.65;;
33690;SDS011;20026;50.058;18.428;2023-03-23T09:45:30;6.93;;;4.32;;
33690;SDS011;20026;50.058;18.428;2023-03-23T09:50:30;7.63;;;4.90;;
33690;SDS011;20026;50.058;18.428;2023-03-23T09:53:19;9.75;;;4.80;;
33690;SDS011;20026;50.058;18.428;2023-03-23T09:55:46;13.23;;;5.13;;
33690;SDS011;20026;50.058;18.428;2023-03-23T10:01:19;11.80;;;4.63;;
33690;SDS011;20026;50.058;18.428;2023-03-23T10:03:42;10.25;;;4.55;;
33690;SDS011;20026;50.058;18.428;2023-03-23T10:06:09;6.63;;;4.22;;
33690;SDS011;20026;50.058;18.428;2023-03-23T10:08:37;11.85;;;4.80;;
33690;SDS011;20026;50.058;18.428;2023-03-23T10:16:03;10.63;;;5.40;;
33690;SDS011;20026;50.058;18.428;2023-03-23T10:18:36;10.02;;;4.97;;
33690;SDS011;20026;50.058;18.428;2023-03-23T10:21:02;7.28;;;4.07;;
33690;SDS011;20026;50.058;18.428;2023-03-23T10:26:10;10.27;;;4.68;;
33690;SDS011;20026;50.058;18.428;2023-03-23T10:28:39;11.15;;;3.92;;
33690;SDS011;20026;50.058;18.428;2023-03-23T10:31:08;13.52;;;5.10;;
33690;SDS011;20026;50.058;18.428;2023-03-23T10:33:42;11.68;;;5.13;;
33690;SDS011;20026;50.058;18.428;2023-03-23T10:41:20;8.77;;;4.10;;
33690;SDS011;20026;50.058;18.428;2023-03-23T10:43:47;13.32;;;4.63;;
33690;SDS011;20026;50.058;18.428;2023-03-23T10:46:21;13.05;;;4.55;;
33690;SDS011;20026;50.058;18.428;2023-03-23T10:48:48;12.48;;;4.60;;
33690;SDS011;20026;50.058;18.428;2023-03-23T10:51:16;28.88;;;12.63;;
33690;SDS011;20026;50.058;18.428;2023-03-23T10:53:44;22.98;;;7.00;;
33690;SDS011;20026;50.058;18.428;2023-03-23T10:56:25;18.55;;;13.18;;
33690;SDS011;20026;50.058;18.428;2023-03-23T10:58:52;12.75;;;7.55;;
33690;SDS011;20026;50.058;18.428;2023-03-23T11:01:19;15.63;;;6.15;;
33690;SDS011;20026;50.058;18.428;2023-03-23T11:03:47;8.93;;;4.45;;
33690;SDS011;20026;50.058;18.428;2023-03-23T11:06:22;10.50;;;5.85;;
33690;SDS011;20026;50.058;18.428;2023-03-23T11:08:56;10.70;;;5.13;;
33690;SDS011;20026;50.058;18.428;2023-03-23T11:13:56;11.10;;;5.32;;
33690;SDS011;20026;50.058;18.428;2023-03-23T11:16:32;10.70;;;4.78;;
33690;SDS011;20026;50.058;18.428;2023-03-23T11:18:59;8.57;;;5.10;;
33690;SDS011;20026;50.058;18.428;2023-03-23T11:21:26;9.02;;;6.13;;
33690;SDS011;20026;50.058;18.428;2023-03-23T11:23:54;11.75;;;7.47;;
33690;SDS011;20026;50.058;18.428;2023-03-23T11:26:27;15.52;;;7.20;;
33690;SDS011;20026;50.058;18.428;2023-03-23T11:31:35;10.25;;;5.75;;
33690;SDS011;20026;50.058;18.428;2023-03-23T11:34:03;9.05;;;6.00;;
33690;SDS011;20026;50.058;18.428;2023-03-23T11:36:30;16.92;;;6.50;;
33690;SDS011;20026;50.058;18.428;2023-03-23T11:38:57;14.63;;;6.22;;
33690;SDS011;20026;50.058;18.428;2023-03-23T11:41:23;9.48;;;6.00;;
33690;SDS011;20026;50.058;18.428;2023-03-23T11:43:51;16.17;;;9.88;;
33690;SDS011;20026;50.058;18.428;2023-03-23T11:46:33;13.13;;;5.40;;
33690;SDS011;20026;50.058;18.428;2023-03-23T11:49:01;9.73;;;5.68;;
33690;SDS011;20026;50.058;18.428;2023-03-23T11:58:58;13.60;;;7.28;;
33690;SDS011;20026;50.058;18.428;2023-03-23T12:17:32;15.07;;;6.85;;
33690;SDS011;20026;50.058;18.428;2023-03-23T12:30:30;10.65;;;5.45;;
33690;SDS011;20026;50.058;18.428;2023-03-23T12:35:35;10.27;;;5.13;;
33690;SDS011;20026;50.058;18.428;2023-03-23T12:38:08;16.60;;;5.90;;
33690;SDS011;20026;50.058;18.428;2023-03-23T12:43:31;12.98;;;5.60;;
33690;SDS011;20026;50.058;18.428;2023-03-23T12:49:06;23.95;;;10.32;;
33690;SDS011;20026;50.058;18.428;2023-03-23T12:51:42;14.25;;;9.38;;
33690;SDS011;20026;50.058;18.428;2023-03-23T13:01:38;17.60;;;8.77;;
33690;SDS011;20026;50.058;18.428;2023-03-23T13:11:51;27.55;;;12.43;;
33690;SDS011;20026;50.058;18.428;2023-03-23T13:22:18;28.17;;;10.60;;
33690;SDS011;20026;50.058;18.428;2023-03-23T13:24:59;23.17;;;8.40;;
33690;SDS011;20026;50.058;18.428;2023-03-23T13:27:27;16.20;;;7.38;;
33690;SDS011;20026;50.058;18.428;2023-03-23T13:29:55;18.38;;;6.28;;
33690;SDS011;20026;50.058;18.428;2023-03-23T13:32:28;38.05;;;9.10;;
33690;SDS011;20026;50.058;18.428;2023-03-23T13:34:55;14.07;;;6.97;;
33690;SDS011;20026;50.058;18.428;2023-03-23T13:37:23;17.65;;;5.75;;
33690;SDS011;20026;50.058;18.428;2023-03-23T13:39:59;19.17;;;9.53;;
33690;SDS011;20026;50.058;18.428;2023-03-23T13:42:26;44.70;;;16.98;;
33690;SDS011;20026;50.058;18.428;2023-03-23T13:50:05;43.78;;;19.02;;
33690;SDS011;20026;50.058;18.428;2023-03-23T14:02:48;20.95;;;9.23;;
33690;SDS011;20026;50.058;18.428;2023-03-23T14:10:20;15.20;;;8.20;;
33690;SDS011;20026;50.058;18.428;2023-03-23T14:12:46;18.73;;;9.68;;
33690;SDS011;20026;50.058;18.428;2023-03-23T14:15:12;26.95;;;9.43;;
33690;SDS011;20026;50.058;18.428;2023-03-23T14:17:43;22.50;;;9.75;;
33690;SDS011;20026;50.058;18.428;2023-03-23T14:20:27;19.60;;;10.60;;
33690;SDS011;20026;50.058;18.428;2023-03-23T14:22:57;14.45;;;8.65;;
33690;SDS011;20026;50.058;18.428;2023-03-23T14:25:26;12.80;;;8.48;;
33690;SDS011;20026;50.058;18.428;2023-03-23T14:27:52;18.58;;;10.13;;
33690;SDS011;20026;50.058;18.428;2023-03-23T14:30:20;22.40;;;10.15;;
33690;SDS011;20026;50.058;18.428;2023-03-23T14:32:46;16.63;;;7.90;;
33690;SDS011;20026;50.058;18.428;2023-03-23T14:35:33;16.63;;;9.48;;
33690;SDS011;20026;50.058;18.428;2023-03-23T14:37:59;19.83;;;9.32;;
33690;SDS011;20026;50.058;18.428;2023-03-23T14:40:26;26.20;;;13.38;;
33690;SDS011;20026;50.058;18.428;2023-03-23T14:42:53;20.50;;;11.95;;
33690;SDS011;20026;50.058;18.428;2023-03-23T14:45:20;20.83;;;9.60;;
33690;SDS011;20026;50.058;18.428;2023-03-23T14:48:02;18.88;;;9.68;;
33690;SDS011;20026;50.058;18.428;2023-03-23T14:50:30;18.27;;;9.00;;
33690;SDS011;20026;50.058;18.428;2023-03-23T14:52:57;16.98;;;9.98;;
33690;SDS011;20026;50.058;18.428;2023-03-23T14:55:24;26.33;;;12.63;;
33690;SDS011;20026;50.058;18.428;2023-03-23T14:57:53;20.58;;;10.57;;
33690;SDS011;20026;50.058;18.428;2023-03-23T15:00:24;22.60;;;10.35;;
33690;SDS011;20026;50.058;18.428;2023-03-23T15:02:53;22.33;;;11.20;;
33690;SDS011;20026;50.058;18.428;2023-03-23T15:05:31;19.42;;;10.30;;
33690;SDS011;20026;50.058;18.428;2023-03-23T15:10:43;21.55;;;11.85;;
33690;SDS011;20026;50.058;18.428;2023-03-23T15:13:17;17.73;;;11.48;;
33690;SDS011;20026;50.058;18.428;2023-03-23T15:15:43;26.67;;;14.30;;
33690;SDS011;20026;50.058;18.428;2023-03-23T15:20:55;13.88;;;7.82;;
33690;SDS011;20026;50.058;18.428;2023-03-23T15:23:22;12.93;;;7.85;;
33690;SDS011;20026;50.058;18.428;2023-03-23T15:25:52;22.17;;;9.82;;
33690;SDS011;20026;50.058;18.428;2023-03-23T15:28:19;30.02;;;13.38;;
33690;SDS011;20026;50.058;18.428;2023-03-23T15:30:53;24.90;;;13.68;;
33690;SDS011;20026;50.058;18.428;2023-03-23T15:33:19;26.13;;;15.52;;
33690;SDS011;20026;50.058;18.428;2023-03-23T15:35:51;33.85;;;21.33;;
33690;SDS011;20026;50.058;18.428;2023-03-23T15:40:43;27.63;;;19.65;;
33690;SDS011;20026;50.058;18.428;2023-03-23T15:43:17;31.35;;;19.25;;
33690;SDS011;20026;50.058;18.428;2023-03-23T15:48:31;26.60;;;20.35;;
33690;SDS011;20026;50.058;18.428;2023-03-23T15:50:58;52.92;;;36.20;;
33690;SDS011;20026;50.058;18.428;2023-03-23T15:53:32;328.38;;;211.73;;
33690;SDS011;20026;50.058;18.428;2023-03-23T15:55:59;231.30;;;126.97;;
33690;SDS011;20026;50.058;18.428;2023-03-23T15:58:26;180.38;;;89.90;;
33690;SDS011;20026;50.058;18.428;2023-03-23T16:00:52;142.07;;;64.30;;
33690;SDS011;20026;50.058;18.428;2023-03-23T16:03:20;128.93;;;58.90;;
33690;SDS011;20026;50.058;18.428;2023-03-23T16:05:49;88.95;;;46.38;;
33690;SDS011;20026;50.058;18.428;2023-03-23T16:08:15;135.10;;;99.95;;
33690;SDS011;20026;50.058;18.428;2023-03-23T16:10:41;123.97;;;76.72;;
33690;SDS011;20026;50.058;18.428;2023-03-23T16:13:08;110.30;;;75.13;;
33690;SDS011;20026;50.058;18.428;2023-03-23T16:15:34;66.30;;;37.97;;
33690;SDS011;20026;50.058;18.428;2023-03-23T16:18:00;70.80;;;36.53;;
33690;SDS011;20026;50.058;18.428;2023-03-23T16:20:27;58.75;;;32.75;;
33690;SDS011;20026;50.058;18.428;2023-03-23T16:22:53;64.78;;;34.53;;
33690;SDS011;20026;50.058;18.428;2023-03-23T16:25:19;53.92;;;28.40;;
33690;SDS011;20026;50.058;18.428;2023-03-23T16:27:45;68.55;;;48.88;;
33690;SDS011;20026;50.058;18.428;2023-03-23T16:30:22;286.58;;;141.90;;
33690;SDS011;20026;50.058;18.428;2023-03-23T16:32:48;426.63;;;206.00;;
33690;SDS011;20026;50.058;18.428;2023-03-23T16:35:15;495.40;;;245.68;;
33690;SDS011;20026;50.058;18.428;2023-03-23T16:37:45;385.35;;;182.07;;
33690;SDS011;20026;50.058;18.428;2023-03-23T16:40:11;416.20;;;201.80;;
33690;SDS011;20026;50.058;18.428;2023-03-23T16:42:37;455.95;;;227.13;;
33690;SDS011;20026;50.058;18.428;2023-03-23T16:45:04;176.18;;;85.72;;
33690;SDS011;20026;50.058;18.428;2023-03-23T16:47:30;176.43;;;84.88;;
33690;SDS011;20026;50.058;18.428;2023-03-23T16:49:56;235.90;;;113.18;;
33690;SDS011;20026;50.058;18.428;2023-03-23T16:52:23;209.20;;;101.20;;